Terminal Aerodrome Forecast
Issued by NWS

Home | Current Version | Previous Version | Text Only | Print | Product List | Glossary On
Versions: 1 2 3 4 5 6 7 8 9 10 11 12
733
FTUS44 KLUB 022321
TAFCDS
TAF
KCDS 022321Z 0300/0324 04011KT P6SM -RA OVC015
     FM030200 05009KT 2SM -RA OVC009=

USA.gov is the U.S. government's official web portal to all federal, state and local government web resources and services.